createdAt,value
2022-11-08T00:00:16.627Z,17.07
2022-11-08T00:02:45.114Z,17.12
2022-11-08T00:05:31.842Z,17.12
2022-11-08T00:08:21.619Z,17.05
2022-11-08T00:11:07.888Z,16.93
2022-11-08T00:13:54.592Z,16.80
2022-11-08T00:16:22.881Z,16.99
2022-11-08T00:18:51.227Z,17.05
2022-11-08T00:21:19.102Z,17.05
2022-11-08T00:23:47.220Z,17.05
2022-11-08T00:26:15.567Z,16.99
2022-11-08T00:28:43.114Z,17.05
2022-11-08T00:31:10.237Z,17.08
2022-11-08T00:33:37.626Z,17.09
2022-11-08T00:36:04.925Z,17.11
2022-11-08T00:38:32.046Z,17.06
2022-11-08T00:40:59.468Z,17.10
2022-11-08T00:43:26.587Z,17.09
2022-11-08T00:45:53.716Z,17.09
2022-11-08T00:48:21.277Z,17.08
2022-11-08T00:50:48.486Z,16.97
2022-11-08T00:53:15.630Z,16.96
2022-11-08T00:55:43.070Z,16.91
2022-11-08T00:58:11.595Z,16.94
2022-11-08T01:00:38.700Z,16.81
2022-11-08T01:03:21.551Z,16.92
2022-11-08T01:05:48.915Z,16.93
2022-11-08T01:08:16.777Z,16.90
2022-11-08T01:10:45.008Z,16.81
2022-11-08T01:13:12.329Z,16.86
2022-11-08T01:15:40.873Z,16.91
2022-11-08T01:18:08.491Z,16.94
2022-11-08T01:20:41.638Z,16.97
2022-11-08T01:23:09.153Z,16.94
2022-11-08T01:25:37.368Z,16.94
2022-11-08T01:28:04.793Z,16.96
2022-11-08T01:30:34.733Z,16.94
2022-11-08T01:33:01.830Z,16.90
2022-11-08T01:35:30.200Z,16.86
2022-11-08T01:37:57.720Z,16.91
2022-11-08T01:40:25.329Z,16.92
2022-11-08T01:42:52.653Z,16.92
2022-11-08T01:45:38.736Z,16.88
2022-11-08T01:48:05.857Z,16.88
2022-11-08T01:50:33.238Z,16.82
2022-11-08T01:53:00.358Z,16.81
2022-11-08T01:55:30.814Z,16.83
2022-11-08T01:57:58.133Z,16.81
2022-11-08T02:00:25.292Z,16.85
2022-11-08T02:02:56.873Z,16.87
2022-11-08T02:05:26.943Z,16.88
2022-11-08T02:07:55.435Z,16.83
2022-11-08T02:10:23.568Z,16.84
2022-11-08T02:12:51.082Z,16.81
2022-11-08T02:15:18.608Z,16.83
2022-11-08T02:17:45.746Z,16.87
2022-11-08T02:20:12.863Z,16.87
2022-11-08T02:22:41.476Z,16.89
2022-11-08T02:25:08.596Z,16.85
2022-11-08T02:27:36.770Z,16.84
2022-11-08T02:30:04.338Z,16.86
2022-11-08T02:32:38.327Z,16.82
2022-11-08T02:35:06.338Z,16.75
2022-11-08T02:37:33.468Z,16.60
2022-11-08T02:40:00.588Z,16.72
2022-11-08T02:42:28.032Z,16.68
2022-11-08T02:44:55.160Z,16.72
2022-11-08T02:47:24.190Z,16.72
2022-11-08T02:49:51.584Z,16.63
2022-11-08T02:52:18.694Z,16.63
2022-11-08T02:54:45.784Z,16.52
2022-11-08T02:57:13.196Z,16.47
2022-11-08T02:59:40.332Z,16.61
2022-11-08T03:02:07.586Z,16.64
2022-11-08T03:04:35.076Z,16.58
2022-11-08T03:07:02.209Z,16.64
2022-11-08T03:09:29.323Z,16.65
2022-11-08T03:27:15.286Z,16.38
2022-11-08T03:29:42.683Z,16.32
2022-11-08T03:32:09.782Z,16.41
2022-11-08T03:34:36.889Z,16.43
2022-11-08T03:37:07.300Z,16.35
2022-11-08T03:39:34.411Z,16.29
2022-11-08T03:42:03.209Z,16.27
2022-11-08T03:44:30.919Z,16.16
2022-11-08T03:46:58.543Z,16.23
2022-11-08T03:49:26.733Z,16.17
2022-11-08T03:51:54.361Z,16.04
2022-11-08T03:54:21.496Z,15.98
2022-11-08T03:56:48.624Z,16.04
2022-11-08T03:59:16.056Z,16.03
2022-11-08T04:01:43.260Z,16.18
2022-11-08T04:04:10.728Z,16.10
2022-11-08T04:06:37.844Z,16.08
2022-11-08T04:09:07.408Z,15.96
2022-11-08T04:11:53.572Z,15.99
2022-11-08T04:14:39.240Z,15.97
2022-11-08T04:17:06.618Z,15.92
2022-11-08T04:19:52.529Z,15.80
2022-11-08T04:22:19.914Z,15.94
2022-11-08T04:24:47.039Z,16.06
2022-11-08T04:27:14.150Z,16.23
2022-11-08T04:29:41.550Z,16.18
2022-11-08T04:32:08.676Z,16.19
2022-11-08T04:34:35.800Z,16.15
2022-11-08T04:37:04.222Z,16.23
2022-11-08T04:39:31.343Z,16.23
2022-11-08T04:42:02.097Z,16.12
2022-11-08T04:44:30.054Z,16.07
2022-11-08T04:46:57.174Z,15.64
2022-11-08T04:49:24.300Z,15.92
2022-11-08T04:51:51.675Z,15.91
2022-11-08T04:54:18.804Z,15.75
2022-11-08T04:56:45.915Z,15.79
2022-11-08T04:59:13.285Z,15.50
2022-11-08T05:01:40.526Z,15.57
2022-11-08T05:04:07.739Z,15.72
2022-11-08T05:06:35.112Z,15.50
2022-11-08T05:09:02.220Z,15.40
2022-11-08T05:11:29.828Z,15.59
2022-11-08T05:13:57.282Z,15.81
2022-11-08T05:16:25.528Z,15.98
2022-11-08T05:18:52.890Z,16.16
2022-11-08T05:21:39.578Z,16.26
2022-11-08T05:24:07.348Z,15.67
2022-11-08T05:26:35.554Z,14.63
2022-11-08T05:29:02.679Z,13.71
2022-11-08T05:31:29.804Z,14.01
2022-11-08T05:33:57.164Z,14.65
2022-11-08T05:36:24.302Z,14.97
2022-11-08T05:38:51.433Z,14.93
2022-11-08T05:41:19.582Z,15.11
2022-11-08T05:43:47.691Z,15.03
2022-11-08T05:46:15.019Z,15.47
2022-11-08T05:48:43.260Z,15.59
2022-11-08T05:51:12.016Z,15.72
2022-11-08T05:53:39.620Z,15.80
2022-11-08T05:56:07.229Z,15.71
2022-11-08T05:58:35.116Z,15.72
2022-11-08T06:01:03.637Z,15.98
2022-11-08T06:03:32.139Z,15.72
2022-11-08T06:06:06.473Z,15.55
2022-11-08T06:08:33.842Z,14.66
2022-11-08T06:11:03.915Z,15.03
2022-11-08T06:13:31.455Z,15.01
2022-11-08T06:16:06.107Z,14.95
2022-11-08T06:18:33.423Z,15.21
2022-11-08T06:21:01.772Z,15.37
2022-11-08T06:23:28.982Z,14.96
2022-11-08T06:25:56.585Z,15.51
2022-11-08T06:28:24.146Z,15.38
2022-11-08T06:30:51.416Z,15.30
2022-11-08T06:33:19.168Z,15.49
2022-11-08T06:35:47.055Z,15.05
2022-11-08T06:38:14.171Z,15.15
2022-11-08T06:40:41.368Z,15.00
2022-11-08T06:43:14.963Z,15.29
2022-11-08T06:45:45.239Z,15.29
2022-11-08T06:48:12.608Z,14.94
2022-11-08T06:50:39.719Z,14.40
2022-11-08T06:53:07.817Z,14.70
2022-11-08T06:55:35.319Z,14.40
2022-11-08T06:58:02.606Z,13.36
2022-11-08T07:00:29.737Z,13.25
2022-11-08T07:02:58.262Z,13.55
2022-11-08T07:05:25.822Z,13.24
2022-11-08T07:07:53.291Z,13.81
2022-11-08T07:10:21.563Z,13.93
2022-11-08T07:12:48.874Z,14.55
2022-11-08T07:15:16.164Z,14.75
2022-11-08T07:17:43.572Z,15.10
2022-11-08T07:20:11.960Z,14.79
2022-11-08T07:22:39.940Z,15.01
2022-11-08T07:25:07.689Z,15.61
2022-11-08T07:27:34.784Z,15.49
2022-11-08T07:30:01.914Z,15.75
2022-11-08T07:32:29.324Z,14.93
2022-11-08T07:34:56.723Z,13.86
2022-11-08T07:37:23.832Z,14.47
2022-11-08T07:39:51.193Z,14.61
2022-11-08T07:42:18.318Z,13.71
2022-11-08T07:44:45.800Z,14.69
2022-11-08T07:47:13.215Z,14.23
2022-11-08T07:49:40.318Z,13.55
2022-11-08T07:52:12.530Z,12.88
2022-11-08T07:55:08.504Z,13.71
2022-11-08T07:57:40.552Z,14.45
2022-11-08T08:00:20.150Z,14.82
2022-11-08T08:03:14.023Z,13.82
2022-11-08T08:05:43.611Z,13.63
2022-11-08T08:08:26.369Z,14.24
2022-11-08T08:11:03.219Z,14.97
2022-11-08T08:13:49.929Z,15.48
2022-11-08T08:16:36.896Z,15.39
2022-11-08T08:19:28.995Z,15.32
2022-11-08T08:21:56.137Z,14.44
2022-11-08T08:24:26.660Z,14.81
2022-11-08T08:27:12.056Z,14.48
2022-11-08T08:29:40.968Z,15.04
2022-11-08T08:32:31.321Z,15.18
2022-11-08T08:34:59.403Z,15.18
2022-11-08T08:37:26.552Z,14.80
2022-11-08T08:40:13.048Z,15.01
2022-11-08T08:44:04.250Z,14.92
2022-11-08T08:46:57.565Z,13.61
2022-11-08T08:49:24.748Z,15.02
2022-11-08T08:51:58.053Z,15.06
2022-11-08T08:54:47.867Z,15.52
2022-11-08T08:57:16.263Z,15.08
2022-11-08T09:02:41.468Z,14.35
2022-11-08T09:05:12.960Z,14.83
2022-11-08T09:07:42.405Z,14.55
2022-11-08T09:10:18.753Z,14.79
2022-11-08T09:12:46.122Z,15.03
2022-11-08T09:15:13.235Z,14.98
2022-11-08T09:17:40.340Z,15.09
2022-11-08T09:20:08.087Z,13.52
2022-11-08T09:22:35.316Z,13.66
2022-11-08T09:25:02.476Z,12.87
2022-11-08T09:27:30.360Z,14.98
2022-11-08T09:29:57.911Z,15.21
2022-11-08T09:32:46.324Z,15.58
2022-11-08T09:35:12.938Z,15.61
2022-11-08T09:37:41.492Z,16.38
2022-11-08T09:40:11.115Z,15.52
2022-11-08T09:42:57.201Z,15.95
2022-11-08T09:45:29.172Z,16.94
2022-11-08T09:48:00.173Z,16.33
2022-11-08T09:50:30.860Z,16.59
2022-11-08T09:52:58.171Z,15.63
2022-11-08T09:55:26.966Z,14.94
2022-11-08T09:58:23.434Z,14.05
2022-11-08T10:00:51.038Z,15.10
2022-11-08T10:03:19.150Z,14.95
2022-11-08T10:05:52.397Z,15.45
2022-11-08T10:08:26.560Z,16.18
2022-11-08T10:10:57.245Z,16.41
2022-11-08T10:13:39.284Z,16.23
2022-11-08T10:16:09.451Z,16.99
2022-11-08T10:18:51.850Z,15.39
2022-11-08T10:21:18.919Z,15.38
2022-11-08T10:23:48.023Z,16.39
2022-11-08T10:26:16.897Z,16.77
2022-11-08T10:28:47.503Z,17.19
2022-11-08T10:31:14.863Z,17.39
2022-11-08T10:33:52.692Z,15.72
2022-11-08T10:36:27.892Z,15.54
2022-11-08T10:39:01.363Z,16.50
2022-11-08T10:41:31.711Z,15.49
2022-11-08T10:44:00.780Z,15.89
2022-11-08T10:46:36.599Z,16.05
2022-11-08T10:49:13.368Z,15.88
2022-11-08T10:51:40.512Z,16.37
2022-11-08T10:54:08.540Z,15.58
2022-11-08T10:56:53.082Z,15.78
2022-11-08T10:59:30.907Z,16.35
2022-11-08T11:01:58.096Z,15.45
2022-11-08T11:04:32.351Z,14.33
2022-11-08T11:07:02.803Z,14.30
2022-11-08T11:09:30.285Z,14.00
2022-11-08T11:11:58.304Z,14.95
2022-11-08T11:14:25.475Z,14.07
2022-11-08T11:16:57.036Z,13.94
2022-11-08T11:19:24.945Z,14.32
2022-11-08T11:21:55.105Z,13.18
2022-11-08T11:24:22.235Z,14.05
2022-11-08T11:27:01.555Z,14.97
2022-11-08T11:29:28.955Z,14.12
2022-11-08T11:31:56.054Z,14.87
2022-11-08T11:34:32.414Z,13.95
2022-11-08T11:37:03.479Z,13.63
2022-11-08T11:39:30.539Z,14.19
2022-11-08T11:42:31.116Z,13.56
2022-11-08T11:45:03.373Z,14.92
2022-11-08T11:47:35.517Z,14.80
2022-11-08T11:50:06.149Z,15.54
2022-11-08T11:52:33.284Z,14.12
2022-11-08T11:55:00.399Z,14.87
2022-11-08T11:57:33.768Z,15.85
2022-11-08T12:00:05.338Z,15.19
2022-11-08T12:02:54.230Z,14.84
2022-11-08T12:05:28.583Z,15.26
2022-11-08T12:07:58.401Z,14.96
2022-11-08T12:10:28.924Z,14.41
2022-11-08T12:13:01.085Z,14.55
2022-11-08T12:15:48.691Z,15.24
2022-11-08T12:18:43.042Z,15.20
2022-11-08T12:21:23.218Z,15.21
2022-11-08T12:23:53.055Z,15.63
2022-11-08T12:26:20.407Z,16.24
2022-11-08T12:28:56.414Z,14.78
2022-11-08T12:31:25.616Z,14.82
2022-11-08T12:33:56.803Z,15.88
2022-11-08T12:36:34.183Z,15.98
2022-11-08T12:39:01.209Z,15.91
2022-11-08T12:41:38.894Z,15.73
2022-11-08T12:44:24.058Z,15.58
2022-11-08T12:47:00.476Z,16.15
2022-11-08T12:49:33.106Z,16.56
2022-11-08T12:52:23.192Z,16.82
2022-11-08T12:54:53.955Z,16.48
2022-11-08T12:57:27.592Z,16.18
2022-11-08T13:00:00.709Z,16.93
2022-11-08T13:02:28.547Z,17.49
2022-11-08T13:04:56.189Z,17.59
2022-11-08T13:07:42.026Z,17.86
2022-11-08T13:10:23.708Z,17.55
2022-11-08T13:13:08.421Z,18.22
2022-11-08T13:15:35.822Z,17.36
2022-11-08T13:18:11.836Z,17.24
2022-11-08T13:20:42.337Z,17.88
2022-11-08T13:23:12.663Z,17.89
2022-11-08T13:25:40.733Z,17.23
2022-11-08T13:28:26.626Z,17.31
2022-11-08T13:30:56.404Z,17.96
2022-11-08T13:33:27.271Z,17.71
2022-11-08T13:35:57.588Z,18.02
2022-11-08T13:38:30.787Z,17.77
2022-11-08T13:41:07.168Z,17.46
2022-11-08T13:43:34.713Z,17.95
2022-11-08T13:46:20.418Z,18.29
2022-11-08T13:49:13.841Z,18.44
2022-11-08T13:51:41.796Z,18.20
2022-11-08T13:54:21.187Z,17.01
2022-11-08T13:56:49.599Z,17.58
2022-11-08T13:59:32.541Z,17.93
2022-11-08T14:02:05.903Z,18.81
2022-11-08T14:04:35.478Z,18.19
2022-11-08T14:07:25.245Z,17.63
2022-11-08T14:09:59.228Z,17.94
2022-11-08T14:12:34.540Z,17.53
2022-11-08T14:15:10.288Z,17.45
2022-11-08T14:17:40.912Z,17.72
2022-11-08T14:20:15.796Z,18.10
2022-11-08T14:22:47.491Z,17.31
2022-11-08T14:25:19.006Z,17.59
2022-11-08T14:27:46.119Z,17.99
2022-11-08T14:30:18.090Z,17.73
2022-11-08T14:32:45.795Z,17.62
2022-11-08T14:35:12.861Z,18.15
2022-11-08T14:37:41.806Z,18.62
2022-11-08T14:40:16.546Z,18.66
2022-11-08T14:42:44.178Z,18.52
2022-11-08T14:45:12.711Z,17.68
2022-11-08T14:47:42.390Z,18.51
2022-11-08T14:50:16.829Z,18.85
2022-11-08T14:52:44.439Z,18.71
2022-11-08T14:55:12.591Z,18.86
2022-11-08T14:57:46.732Z,18.83
2022-11-08T15:00:14.350Z,19.01
2022-11-08T15:02:42.222Z,18.56
2022-11-08T15:05:25.382Z,18.68
2022-11-08T15:07:52.900Z,18.77
2022-11-08T15:10:20.392Z,19.07
2022-11-08T15:12:47.705Z,18.06
2022-11-08T15:15:19.717Z,17.85
2022-11-08T15:17:46.972Z,17.38
2022-11-08T15:20:14.557Z,16.93
2022-11-08T15:22:44.075Z,17.62
2022-11-08T15:25:17.233Z,17.13
2022-11-08T15:27:48.400Z,15.89
2022-11-08T15:30:16.548Z,15.23
2022-11-08T15:32:43.914Z,15.07
2022-11-08T15:35:21.670Z,15.37
2022-11-08T15:37:51.675Z,16.36
2022-11-08T15:40:21.671Z,15.07
2022-11-08T15:42:50.173Z,15.39
2022-11-08T15:45:17.239Z,14.74
2022-11-08T15:47:46.219Z,15.40
2022-11-08T15:50:20.896Z,14.39
2022-11-08T15:52:50.421Z,15.11
2022-11-08T15:55:24.796Z,15.56
2022-11-08T15:57:52.756Z,14.74
2022-11-08T16:00:24.411Z,14.86
2022-11-08T16:02:52.520Z,14.86
2022-11-08T16:05:23.232Z,14.32
2022-11-08T16:07:50.622Z,13.50
2022-11-08T16:10:19.234Z,13.45
2022-11-08T16:12:47.190Z,13.38
2022-11-08T16:15:15.392Z,13.72
2022-11-08T16:17:43.721Z,13.87
2022-11-08T16:20:17.354Z,13.58
2022-11-08T16:22:45.642Z,13.62
2022-11-08T16:25:13.078Z,13.49
2022-11-08T16:27:41.354Z,13.09
2022-11-08T16:30:13.303Z,12.74
2022-11-08T16:32:40.637Z,13.18
2022-11-08T16:35:08.742Z,13.05
2022-11-08T16:37:38.352Z,13.08
2022-11-08T16:40:24.715Z,13.10
2022-11-08T16:42:53.327Z,14.19
2022-11-08T16:45:37.241Z,13.90
2022-11-08T16:48:13.726Z,13.30
2022-11-08T16:50:41.152Z,13.53
2022-11-08T16:53:15.689Z,13.30
2022-11-08T16:55:52.386Z,13.47
2022-11-08T16:58:20.202Z,13.10
2022-11-08T17:00:50.551Z,12.61
2022-11-08T17:03:19.980Z,12.68
2022-11-08T17:05:47.691Z,12.92
2022-11-08T17:08:15.610Z,13.10
2022-11-08T17:10:43.301Z,13.05
2022-11-08T17:13:15.199Z,13.34
2022-11-08T17:15:42.732Z,12.61
2022-11-08T17:18:17.716Z,13.73
2022-11-08T17:20:45.561Z,14.07
2022-11-08T17:23:12.930Z,13.35
2022-11-08T17:25:43.051Z,14.21
2022-11-08T17:28:11.440Z,13.74
2022-11-08T17:30:44.539Z,14.08
2022-11-08T17:33:13.690Z,14.02
2022-11-08T17:35:44.750Z,14.29
2022-11-08T17:38:13.067Z,14.40
2022-11-08T17:40:42.321Z,13.95
2022-11-08T17:43:10.197Z,13.52
2022-11-08T17:45:39.508Z,13.70
2022-11-08T17:48:07.153Z,13.59
2022-11-08T17:50:34.883Z,13.29
2022-11-08T17:53:03.171Z,13.07
2022-11-08T17:55:30.946Z,13.53
2022-11-08T17:57:59.157Z,13.99
2022-11-08T18:00:27.085Z,14.37
2022-11-08T18:02:55.323Z,13.99
2022-11-08T18:05:24.068Z,13.70
2022-11-08T18:07:52.167Z,14.46
2022-11-08T18:10:20.532Z,14.08
2022-11-08T18:12:48.303Z,14.30
2022-11-08T18:15:18.681Z,13.67
2022-11-08T18:17:48.904Z,13.45
2022-11-08T18:20:16.682Z,14.38
2022-11-08T18:22:44.676Z,13.80
2022-11-08T18:25:12.745Z,14.86
2022-11-08T18:27:41.678Z,14.30
2022-11-08T18:30:09.825Z,14.50
2022-11-08T18:32:38.692Z,15.18
2022-11-08T18:35:06.790Z,14.50
2022-11-08T18:37:34.461Z,14.91
2022-11-08T18:40:02.513Z,14.41
2022-11-08T18:42:30.811Z,14.10
2022-11-08T18:45:01.457Z,14.72
2022-11-08T18:47:29.724Z,14.59
2022-11-08T18:50:01.703Z,14.50
2022-11-08T18:52:31.597Z,14.33
2022-11-08T18:54:58.962Z,15.07
2022-11-08T18:57:27.749Z,15.38
2022-11-08T18:59:59.868Z,15.07
2022-11-08T19:02:28.965Z,15.34
2022-11-08T19:04:57.676Z,15.34
2022-11-08T19:07:28.481Z,14.54
2022-11-08T19:09:56.180Z,15.15
2022-11-08T19:12:23.937Z,15.77
2022-11-08T19:14:51.738Z,15.63
2022-11-08T19:17:18.971Z,15.37
2022-11-08T19:19:47.010Z,14.42
2022-11-08T19:22:16.140Z,15.17
2022-11-08T19:24:43.824Z,14.06
2022-11-08T19:27:11.216Z,15.48
2022-11-08T19:29:38.952Z,14.40
2022-11-08T19:32:08.621Z,14.53
2022-11-08T19:34:36.736Z,14.80
2022-11-08T19:37:04.336Z,14.83
2022-11-08T19:39:36.646Z,15.16
2022-11-08T19:42:04.613Z,14.82
2022-11-08T19:44:33.186Z,14.77
2022-11-08T19:47:00.798Z,14.25
2022-11-08T19:49:29.209Z,15.64
2022-11-08T19:52:02.695Z,15.64
2022-11-08T19:54:30.399Z,16.11
2022-11-08T19:57:06.555Z,14.97
2022-11-08T19:59:34.177Z,14.82
2022-11-08T20:02:01.893Z,14.93
2022-11-08T20:04:30.108Z,15.99
2022-11-08T20:06:57.794Z,15.38
2022-11-08T20:09:30.280Z,15.18
2022-11-08T20:11:59.935Z,14.75
2022-11-08T20:14:28.829Z,13.48
2022-11-08T20:16:59.930Z,14.81
2022-11-08T20:19:30.226Z,14.80
2022-11-08T20:21:58.220Z,14.58
2022-11-08T20:24:25.994Z,14.45
2022-11-08T20:26:54.954Z,15.31
2022-11-08T20:29:25.691Z,15.35
2022-11-08T20:31:53.848Z,15.31
2022-11-08T20:34:25.833Z,14.96
2022-11-08T20:36:53.599Z,14.74
2022-11-08T20:39:21.001Z,14.55
2022-11-08T20:41:49.344Z,14.86
2022-11-08T20:44:17.200Z,15.51
2022-11-08T20:46:45.302Z,14.55
2022-11-08T20:49:13.568Z,15.12
2022-11-08T20:51:41.283Z,15.89
2022-11-08T20:54:12.697Z,15.43
2022-11-08T20:56:40.779Z,15.78
2022-11-08T20:59:08.186Z,15.90
2022-11-08T21:01:36.405Z,14.39
2022-11-08T21:04:04.447Z,14.46
2022-11-08T21:06:35.825Z,14.28
2022-11-08T21:09:31.071Z,15.20
2022-11-08T21:11:52.365Z,15.22
2022-11-08T21:14:21.463Z,16.02
2022-11-08T21:17:19.530Z,15.52
2022-11-08T21:19:39.559Z,14.97
2022-11-08T21:22:16.646Z,15.84
2022-11-08T21:24:45.484Z,15.25
2022-11-08T21:27:28.539Z,14.50
2022-11-08T21:29:57.721Z,14.82
2022-11-08T21:32:25.570Z,15.63
2022-11-08T21:34:53.533Z,16.01
2022-11-08T21:37:21.159Z,15.73
2022-11-08T21:39:48.639Z,15.89
2022-11-08T21:42:16.385Z,15.72
2022-11-08T21:44:43.931Z,16.00
2022-11-08T21:47:11.558Z,15.80
2022-11-08T21:49:39.170Z,15.02
2022-11-08T21:52:06.712Z,15.25
2022-11-08T21:54:33.996Z,15.31
2022-11-08T21:57:01.202Z,14.44
2022-11-08T21:59:28.849Z,15.15
2022-11-08T22:01:56.963Z,15.97
2022-11-08T22:04:24.419Z,16.05
2022-11-08T22:06:51.623Z,14.90
2022-11-08T22:09:18.768Z,15.23
2022-11-08T22:11:46.254Z,15.26
2022-11-08T22:14:13.592Z,15.40
2022-11-08T22:16:40.856Z,15.76
2022-11-08T22:19:08.794Z,15.81
2022-11-08T22:21:40.255Z,15.34
2022-11-08T22:24:09.910Z,15.60
2022-11-08T22:26:37.486Z,15.53
2022-11-08T22:29:04.726Z,15.27
2022-11-08T22:31:32.377Z,15.01
2022-11-08T22:33:59.531Z,14.86
2022-11-08T22:36:27.703Z,13.91
2022-11-08T22:38:55.341Z,13.65
2022-11-08T22:41:23.193Z,14.91
2022-11-08T22:43:50.978Z,14.17
2022-11-08T22:46:19.592Z,14.28
2022-11-08T22:48:46.847Z,13.92
2022-11-08T22:51:13.995Z,14.51
2022-11-08T22:53:41.583Z,14.70
2022-11-08T22:56:11.447Z,14.21
2022-11-08T22:58:39.458Z,15.06
2022-11-08T23:01:11.437Z,14.91
2022-11-08T23:03:38.652Z,14.97
2022-11-08T23:06:05.933Z,14.99
2022-11-08T23:08:33.369Z,14.98
2022-11-08T23:11:19.292Z,13.95
2022-11-08T23:14:05.426Z,13.69
2022-11-08T23:16:35.038Z,14.14
2022-11-08T23:19:22.325Z,13.63
2022-11-08T23:22:10.190Z,13.93
2022-11-08T23:24:37.963Z,13.62
2022-11-08T23:27:23.794Z,13.18
2022-11-08T23:30:10.092Z,13.15
2022-11-08T23:32:39.596Z,13.25
2022-11-08T23:35:08.227Z,13.59
2022-11-08T23:37:35.381Z,14.10
2022-11-08T23:40:20.987Z,13.47
2022-11-08T23:43:07.257Z,14.32
2022-11-08T23:45:34.381Z,13.67
2022-11-08T23:48:01.984Z,14.34
2022-11-08T23:50:29.154Z,13.72
2022-11-08T23:52:56.271Z,13.93
2022-11-08T23:55:23.653Z,13.52
2022-11-08T23:57:50.752Z,13.77
